Time;durP1;ratioP1;P1;durP2;ratioP2;P2;SDS_P1;SDS_P2;PMS_P1;PMS_P2;Temp;Humidity;BMP_temperature;BMP_pressure;BME280_temperature;BME280_humidity;BME280_pressure;Samples;Min_cycle;Max_cycle;Signal;HPM_P1;HPM_P2
2022/07/13 00:00:49;;;;;;;;;8.60;8.60;;;;;20.72;42.67;99869.63;5087501;28;8862;-77
2022/07/13 00:03:18;;;;;;;;;6.00;6.00;;;;;20.66;42.80;99869.84;5090475;28;8839;-76
2022/07/13 00:05:46;;;;;;;;;8.20;8.20;;;;;20.66;42.84;99875.16;5090968;28;8958;-75
2022/07/13 00:08:15;;;;;;;;;8.00;7.40;;;;;20.63;42.89;99876.13;5088092;28;8978;-76
2022/07/13 00:10:44;;;;;;;;;8.00;8.00;;;;;20.54;43.39;99871.13;5086446;28;8891;-74
2022/07/13 00:13:13;;;;;;;;;7.00;7.00;;;;;20.54;43.34;99872.00;5051545;28;8855;-75
2022/07/13 00:15:42;;;;;;;;;9.80;9.20;;;;;20.55;43.50;99879.03;5101025;28;8829;-75
2022/07/13 00:18:11;;;;;;;;;8.40;8.40;;;;;20.54;43.62;99879.09;5089261;28;9594;-75
2022/07/13 00:20:39;;;;;;;;;8.80;8.00;;;;;20.55;43.61;99873.75;5091729;28;8887;-72
2022/07/13 00:23:08;;;;;;;;;9.00;9.00;;;;;20.31;43.98;99864.88;5086543;28;8981;-74
2022/07/13 00:25:37;;;;;;;;;6.80;6.80;;;;;20.40;43.92;99872.50;5086878;28;8982;-74
2022/07/13 00:28:05;;;;;;;;;8.80;8.80;;;;;20.43;43.87;99872.41;5053592;28;8868;-75
2022/07/13 00:30:35;;;;;;;;;9.60;8.00;;;;;20.45;43.90;99872.31;5084435;28;8865;-74
2022/07/13 00:33:05;;;;;;;;;9.20;8.80;;;;;20.45;43.91;99874.97;5070272;28;8849;-74
2022/07/13 00:35:34;;;;;;;;;8.00;8.00;;;;;20.45;44.09;99869.69;5035509;28;8869;-75
2022/07/13 00:38:02;;;;;;;;;8.40;7.60;;;;;20.43;44.06;99875.06;5044303;28;9654;-76
2022/07/13 00:40:32;;;;;;;;;10.40;8.00;;;;;20.42;44.25;99870.66;5033272;28;8831;-74
2022/07/13 00:43:00;;;;;;;;;6.60;6.00;;;;;20.43;44.24;99874.16;5083371;28;8858;-75
2022/07/13 00:45:29;;;;;;;;;8.20;8.20;;;;;20.41;44.34;99870.72;5016613;28;8854;-74
2022/07/13 00:48:00;;;;;;;;;7.60;7.60;;;;;20.40;44.41;99876.94;5066193;28;8881;-75
2022/07/13 00:50:28;;;;;;;;;7.60;7.60;;;;;20.37;44.48;99874.41;5048452;28;8878;-73
2022/07/13 00:52:57;;;;;;;;;7.60;6.80;;;;;20.35;44.78;99870.94;5066263;28;8919;-77
2022/07/13 00:55:26;;;;;;;;;9.00;7.60;;;;;20.28;44.99;99867.63;5063535;28;8851;-72
2022/07/13 00:57:55;;;;;;;;;7.40;7.40;;;;;20.27;44.94;99873.84;5045955;28;8848;-76
2022/07/13 01:00:23;;;;;;;;;7.60;7.60;;;;;20.26;44.78;99872.13;5049327;28;8979;-74
2022/07/13 01:02:52;;;;;;;;;7.00;7.00;;;;;20.24;45.25;99866.00;5050904;28;8928;-75
2022/07/13 01:05:23;;;;;;;;;7.00;7.00;;;;;20.21;45.32;99864.34;5067518;28;8877;-74
2022/07/13 01:07:52;;;;;;;;;8.60;8.60;;;;;20.17;45.49;99873.31;5014098;28;8907;-75
2022/07/13 01:10:22;;;;;;;;;6.40;6.00;;;;;20.14;45.71;99862.81;5049168;28;8865;-76
2022/07/13 01:12:50;;;;;;;;;6.80;6.60;;;;;20.15;45.62;99866.31;5050339;28;8862;-72
2022/07/13 01:15:20;;;;;;;;;7.80;7.40;;;;;20.12;45.97;99864.66;5048884;28;8868;-74
2022/07/13 01:17:49;;;;;;;;;6.20;6.20;;;;;20.11;45.89;99865.56;5067286;28;8880;-74
2022/07/13 01:20:18;;;;;;;;;9.00;8.80;;;;;20.09;45.98;99863.91;5067182;28;8851;-73
2022/07/13 01:22:52;;;;;;;;;7.20;7.20;;;;;20.05;45.92;99866.66;5066910;28;8900;-75
2022/07/13 01:25:24;;;;;;;;;6.00;6.00;;;;;20.03;46.27;99864.97;5066759;28;8866;-74
2022/07/13 01:27:52;;;;;;;;;7.60;7.60;;;;;19.84;46.65;99868.25;5066569;28;8846;-75
2022/07/13 01:30:21;;;;;;;;;8.00;8.00;;;;;19.86;47.03;99870.84;5066896;28;8920;-78
2022/07/13 01:32:51;;;;;;;;;7.20;6.80;;;;;19.86;47.05;99868.19;5067031;28;9528;-74
2022/07/13 01:35:23;;;;;;;;;9.00;9.00;;;;;19.85;47.08;99863.84;5066945;28;8967;-75
2022/07/13 01:37:55;;;;;;;;;9.60;9.00;;;;;19.84;47.22;99854.16;5062336;28;8863;-75
2022/07/13 01:40:25;;;;;;;;;7.80;7.80;;;;;19.84;47.03;99862.94;5106223;28;8986;-74
2022/07/13 01:42:57;;;;;;;;;7.00;7.00;;;;;19.84;47.11;99854.16;5107366;28;8861;-76
2022/07/13 01:45:26;;;;;;;;;9.80;9.60;;;;;19.83;47.29;99861.25;5107201;28;8841;-74
2022/07/13 01:47:56;;;;;;;;;9.20;9.20;;;;;19.82;47.18;99859.50;5104865;28;8856;-76
2022/07/13 01:50:27;;;;;;;;;9.20;8.00;;;;;19.79;47.42;99856.06;5090297;28;8837;-74
2022/07/13 01:52:57;;;;;;;;;7.60;7.60;;;;;19.76;47.43;99859.72;5104385;28;8987;-75
2022/07/13 01:55:28;;;;;;;;;8.20;8.00;;;;;19.75;47.25;99847.38;5106834;28;8853;-74
2022/07/13 01:57:58;;;;;;;;;7.60;7.60;;;;;19.67;47.65;99855.53;5106292;28;8845;-75
2022/07/13 02:00:29;;;;;;;;;8.40;8.40;;;;;19.68;47.61;99857.28;5123775;27;8889;-78
2022/07/13 02:02:57;;;;;;;;;8.00;7.40;;;;;19.61;47.99;99862.81;5052917;28;8906;-73
2022/07/13 02:05:28;;;;;;;;;7.60;7.60;;;;;19.62;47.98;99864.53;5072832;28;10046;-75
2022/07/13 02:07:56;;;;;;;;;9.20;9.20;;;;;19.61;47.67;99865.47;5084610;28;8886;-76
2022/07/13 02:10:35;;;;;;;;;9.00;9.00;;;;;19.60;47.80;99867.25;5087936;28;8929;-75
2022/07/13 02:13:07;;;;;;;;;6.60;6.60;;;;;19.58;48.03;99868.19;5060410;28;8833;-76
2022/07/13 02:15:36;;;;;;;;;7.20;6.00;;;;;19.54;48.18;99862.16;5108407;28;8869;-74
2022/07/13 02:18:06;;;;;;;;;9.00;8.00;;;;;19.50;48.20;99862.31;5108211;28;8841;-74
2022/07/13 02:20:35;;;;;;;;;7.40;7.40;;;;;19.47;48.42;99864.13;5108295;28;8977;-74
2022/07/13 02:23:05;;;;;;;;;9.00;9.00;;;;;19.44;48.61;99869.50;5123887;27;8849;-75
2022/07/13 02:25:37;;;;;;;;;10.00;8.60;;;;;19.45;48.57;99862.44;5109261;28;8856;-76
2022/07/13 02:28:07;;;;;;;;;9.60;9.60;;;;;19.45;48.68;99862.44;5107695;28;8849;-73
2022/07/13 02:30:36;;;;;;;;;10.80;8.60;;;;;19.44;48.45;99858.09;5103396;28;8881;-74
2022/07/13 02:33:06;;;;;;;;;8.00;8.00;;;;;19.42;48.61;99858.13;5088932;28;8855;-74
2022/07/13 02:35:37;;;;;;;;;11.80;10.80;;;;;19.42;48.62;99859.91;5070377;28;8812;-78
2022/07/13 02:38:06;;;;;;;;;8.80;8.80;;;;;19.38;48.84;99859.13;5070465;28;8868;-74
2022/07/13 02:40:36;;;;;;;;;8.80;8.80;;;;;19.36;49.11;99857.47;5103658;28;8931;-74
2022/07/13 02:43:05;;;;;;;;;6.80;6.80;;;;;19.35;48.85;99861.00;5104337;28;8901;-74
2022/07/13 02:45:34;;;;;;;;;7.20;7.20;;;;;19.34;49.15;99862.81;5087275;28;8982;-74
2022/07/13 02:48:02;;;;;;;;;8.80;8.20;;;;;19.32;49.11;99854.06;5087957;28;8836;-75
2022/07/13 02:50:31;;;;;;;;;9.00;7.60;;;;;19.32;49.08;99856.69;5070306;28;8851;-74
2022/07/13 02:53:00;;;;;;;;;7.60;7.60;;;;;19.24;49.32;99861.34;5088344;28;8936;-76
2022/07/13 02:55:28;;;;;;;;;2.60;1.40;;;;;19.24;49.31;99864.88;5087375;28;8895;-71
2022/07/13 02:58:00;;;;;;;;;8.60;8.60;;;;;19.20;49.39;99868.50;5070562;28;8836;-75
2022/07/13 03:00:30;;;;;;;;;7.00;6.80;;;;;19.16;49.81;99861.56;5087194;28;9623;-74
2022/07/13 03:03:00;;;;;;;;;8.00;8.00;;;;;19.05;49.91;99861.94;5052936;28;8936;-73
2022/07/13 03:05:28;;;;;;;;;11.00;8.60;;;;;19.07;49.81;99872.44;5086777;28;8962;-75
2022/07/13 03:07:57;;;;;;;;;7.00;7.00;;;;;19.05;50.20;99872.50;5086999;28;8867;-74
2022/07/13 03:10:26;;;;;;;;;51.25;43.00;;;;;19.03;50.28;99868.16;5071835;28;8851;-73
2022/07/13 03:12:59;;;;;;;;;44.75;37.00;;;;;19.03;50.42;99871.66;5086662;28;8847;-75
2022/07/13 03:15:28;;;;;;;;;10.20;10.20;;;;;19.01;50.45;99865.56;5088333;28;8866;-75
2022/07/13 03:17:57;;;;;;;;;6.80;6.80;;;;;19.04;50.58;99864.63;5069876;28;8863;-73
2022/07/13 03:20:26;;;;;;;;;9.00;9.00;;;;;18.88;50.92;99861.53;5103450;28;8966;-74
2022/07/13 03:22:56;;;;;;;;;7.80;7.00;;;;;18.92;50.77;99871.09;5102390;28;8835;-74
2022/07/13 03:25:25;;;;;;;;;9.80;9.00;;;;;18.95;50.86;99868.38;5104524;28;8948;-74
2022/07/13 03:27:56;;;;;;;;;9.20;8.40;;;;;18.98;50.62;99865.66;5108900;28;8845;-75
2022/07/13 03:30:26;;;;;;;;;6.60;6.00;;;;;19.02;50.62;99867.28;5108118;28;8834;-75
2022/07/13 03:32:56;;;;;;;;;9.60;8.00;;;;;19.06;50.48;99860.13;5106986;28;8872;-74
2022/07/13 03:35:26;;;;;;;;;8.60;8.40;;;;;19.13;50.67;99860.81;5106964;28;8949;-74
2022/07/13 03:37:54;;;;;;;;;9.60;8.60;;;;;19.16;50.42;99861.56;5088792;28;8880;-74
2022/07/13 03:40:27;;;;;;;;;9.00;8.40;;;;;19.09;50.75;99860.91;5106768;28;8829;-74
2022/07/13 03:42:56;;;;;;;;;8.80;8.80;;;;;19.17;50.67;99854.50;5090148;28;8859;-75
2022/07/13 03:45:27;;;;;;;;;11.20;10.00;;;;;19.22;50.84;99856.09;5086191;28;8863;-72
2022/07/13 03:47:55;;;;;;;;;6.60;6.60;;;;;19.31;50.57;99856.75;5052337;28;8851;-75
2022/07/13 03:50:24;;;;;;;;;7.80;7.80;;;;;18.92;51.17;99863.19;5086274;28;8844;-73
2022/07/13 03:52:53;;;;;;;;;54.50;45.00;;;;;19.09;50.93;99854.75;5072319;27;8849;-76
2022/07/13 03:55:23;;;;;;;;;22.20;21.20;;;;;19.17;50.85;99862.44;5073324;28;8962;-72
2022/07/13 03:57:51;;;;;;;;;7.00;7.00;;;;;19.31;50.53;99854.94;5091578;28;8990;-75
2022/07/13 04:00:21;;;;;;;;;8.00;7.00;;;;;19.44;50.16;99850.16;5056423;28;8988;-73
2022/07/13 04:02:54;;;;;;;;;6.20;6.20;;;;;19.55;50.03;99857.75;5090254;28;8852;-72
2022/07/13 04:05:25;;;;;;;;;9.00;7.80;;;;;19.64;49.50;99860.06;5091403;28;8856;-73
2022/07/13 04:07:54;;;;;;;;;8.20;7.80;;;;;19.73;49.52;99853.66;5090146;28;9633;-73
2022/07/13 04:10:23;;;;;;;;;50.50;41.50;;;;;19.81;49.40;99859.53;5090024;28;8831;-73
2022/07/13 04:12:53;;;;;;;;;25.60;22.20;;;;;19.86;49.17;99861.13;5090450;28;9036;-77
2022/07/13 04:15:29;;;;;;;;;8.40;8.40;;;;;19.98;48.92;99851.03;5073687;28;8951;-75
2022/07/13 04:17:59;;;;;;;;;8.20;7.40;;;;;20.03;48.88;99849.09;5072596;28;8891;-74
2022/07/13 04:20:28;;;;;;;;;29.00;28.00;;;;;20.13;48.65;99850.53;5089965;28;8873;-74
2022/07/13 04:22:57;;;;;;;;;54.00;45.00;;;;;20.07;48.54;99853.34;5102661;28;8837;-74
2022/07/13 04:25:26;;;;;;;;;33.50;30.25;;;;;20.18;48.51;99848.56;5111161;28;8860;-73
2022/07/13 04:27:57;;;;;;;;;7.60;7.20;;;;;20.33;48.27;99846.28;5092062;28;8857;-75
2022/07/13 04:30:27;;;;;;;;;8.60;8.60;;;;;20.44;48.30;99852.94;5110248;28;8876;-74
2022/07/13 04:32:58;;;;;;;;;10.20;10.20;;;;;20.53;48.09;99862.34;5092827;28;9683;-74
2022/07/13 04:35:27;;;;;;;;;7.40;7.20;;;;;20.64;47.59;99859.31;5098647;28;8843;-73
2022/07/13 04:37:56;;;;;;;;;10.00;9.80;;;;;20.74;47.49;99860.72;5089264;28;8871;-73
2022/07/13 04:40:26;;;;;;;;;10.40;9.40;;;;;20.87;47.28;99857.56;5055875;28;8964;-74
2022/07/13 04:42:55;;;;;;;;;8.60;8.60;;;;;20.99;47.15;99870.38;5106442;28;8843;-75
2022/07/13 04:45:25;;;;;;;;;7.80;7.80;;;;;21.09;46.61;99862.94;5069113;28;9604;-74
2022/07/13 04:47:56;;;;;;;;;8.00;8.00;;;;;21.05;46.90;99869.28;5046556;28;8871;-75
2022/07/13 04:50:28;;;;;;;;;9.00;9.00;;;;;21.14;46.81;99869.78;5096148;28;8855;-77
2022/07/13 04:52:57;;;;;;;;;5.40;5.40;;;;;21.26;46.51;99867.56;5107782;28;8867;-74
2022/07/13 04:55:26;;;;;;;;;9.80;9.80;;;;;21.09;46.81;99866.44;5088700;28;8859;-76
2022/07/13 04:57:56;;;;;;;;;9.00;9.00;;;;;21.17;46.75;99869.69;5107795;28;8991;-75
2022/07/13 05:00:27;;;;;;;;;8.00;8.00;;;;;21.02;46.86;99868.47;5087736;28;8925;-75
2022/07/13 05:02:58;;;;;;;;;9.20;9.20;;;;;20.72;47.61;99873.16;5106847;28;8841;-74
2022/07/13 05:05:32;;;;;;;;;8.60;7.00;;;;;20.83;47.87;99875.38;5090279;28;8938;-74
2022/07/13 05:08:02;;;;;;;;;13.80;12.00;;;;;20.69;48.03;99883.00;5124602;27;8872;-74
2022/07/13 05:10:31;;;;;;;;;11.20;9.60;;;;;20.55;48.50;99876.38;5089376;28;9695;-74
2022/07/13 05:12:59;;;;;;;;;11.40;11.40;;;;;20.56;48.65;99877.25;5089411;28;8972;-74
2022/07/13 05:15:51;;;;;;;;;9.00;9.00;;;;;20.66;48.06;99877.81;5104391;28;8849;-73
2022/07/13 05:18:20;;;;;;;;;8.60;6.60;;;;;20.52;48.73;99878.28;5107347;28;8895;-77
2022/07/13 05:20:50;;;;;;;;;10.20;9.60;;;;;20.83;48.02;99870.09;5123534;27;8912;-76
2022/07/13 05:23:19;;;;;;;;;8.80;8.80;;;;;20.81;48.20;99875.47;5106818;28;8848;-74
2022/07/13 05:25:48;;;;;;;;;12.40;10.60;;;;;20.51;48.92;99879.19;5088335;28;8887;-75
2022/07/13 05:28:17;;;;;;;;;10.00;9.40;;;;;20.42;49.22;99881.25;5123751;27;9004;-75
2022/07/13 05:30:45;;;;;;;;;11.00;11.00;;;;;20.63;49.06;99884.09;5052395;27;8872;-74
2022/07/13 05:33:16;;;;;;;;;6.60;6.60;;;;;20.49;49.48;99884.56;5090176;28;8865;-74
2022/07/13 05:35:45;;;;;;;;;9.80;9.80;;;;;20.77;48.90;99884.44;5105520;28;8883;-75
2022/07/13 05:38:16;;;;;;;;;11.20;10.80;;;;;20.97;48.31;99886.34;5106935;28;8945;-75
2022/07/13 05:40:46;;;;;;;;;11.60;10.40;;;;;20.80;48.44;99883.47;5070981;28;8967;-74
2022/07/13 05:43:15;;;;;;;;;9.40;8.40;;;;;20.84;48.11;99885.94;5089064;28;8946;-74
2022/07/13 05:45:44;;;;;;;;;9.80;8.80;;;;;20.81;48.75;99886.06;5105489;28;8837;-75
2022/07/13 05:48:14;;;;;;;;;9.00;9.00;;;;;21.14;47.84;99895.44;5086629;28;8944;-74
2022/07/13 05:50:42;;;;;;;;;9.20;9.20;;;;;21.38;47.20;99893.63;5104854;28;9668;-76
2022/07/13 05:53:11;;;;;;;;;10.00;7.60;;;;;21.55;46.67;99893.84;5048794;28;8885;-74
2022/07/13 05:55:41;;;;;;;;;14.40;13.20;;;;;21.68;46.31;99902.19;5087800;28;8872;-75
2022/07/13 05:58:10;;;;;;;;;8.40;8.40;;;;;21.65;46.34;99894.34;5088328;28;8963;-75
2022/07/13 06:00:38;;;;;;;;;11.20;9.00;;;;;21.81;46.10;99894.56;5085572;28;8857;-75
2022/07/13 06:03:07;;;;;;;;;12.20;10.20;;;;;21.55;46.60;99896.50;5066151;28;8844;-75
2022/07/13 06:05:35;;;;;;;;;8.40;8.40;;;;;21.89;45.88;99896.91;5068208;28;8875;-76
2022/07/13 06:08:05;;;;;;;;;7.80;7.80;;;;;22.03;45.74;99894.53;5070163;28;8982;-75
2022/07/13 06:10:33;;;;;;;;;8.20;8.20;;;;;22.26;45.22;99892.72;5066131;28;8914;-75
2022/07/13 06:13:03;;;;;;;;;9.20;9.20;;;;;22.31;45.00;99893.41;5052249;28;8853;-75
2022/07/13 06:15:32;;;;;;;;;13.60;10.00;;;;;22.34;44.65;99893.25;5084883;28;8841;-76
2022/07/13 06:18:01;;;;;;;;;9.60;9.60;;;;;22.57;44.03;99895.78;5052382;28;9584;-74
2022/07/13 06:20:29;;;;;;;;;10.60;10.60;;;;;22.57;44.12;99895.78;5051744;28;9663;-78
2022/07/13 06:23:10;;;;;;;;;9.20;9.20;;;;;22.06;45.59;99905.06;5030399;28;8902;-76
2022/07/13 06:25:40;;;;;;;;;11.80;11.00;;;;;22.22;45.41;99901.75;5065648;28;8844;-76
2022/07/13 06:28:10;;;;;;;;;10.60;10.60;;;;;22.45;44.69;99904.28;5066973;28;8833;-74
2022/07/13 06:30:39;;;;;;;;;9.20;9.20;;;;;22.61;44.19;99915.13;5068822;28;8967;-74
2022/07/13 06:33:08;;;;;;;;;12.80;10.20;;;;;22.55;44.53;99910.94;5090499;28;8853;-78
2022/07/13 06:35:36;;;;;;;;;10.00;10.00;;;;;22.50;44.07;99909.41;5101650;28;9641;-74
2022/07/13 06:38:05;;;;;;;;;10.60;10.40;;;;;22.37;44.64;99909.94;5070490;28;8958;-73
2022/07/13 06:40:33;;;;;;;;;11.40;9.60;;;;;22.34;44.53;99898.56;5106382;28;8884;-74
2022/07/13 06:43:02;;;;;;;;;10.80;9.00;;;;;22.57;44.27;99909.06;5107164;28;8821;-74
2022/07/13 06:45:32;;;;;;;;;11.20;9.80;;;;;22.82;43.60;99907.13;5071299;28;8848;-73
2022/07/13 06:48:00;;;;;;;;;9.60;9.60;;;;;22.93;43.05;99905.69;5104551;28;8967;-76
2022/07/13 06:50:29;;;;;;;;;9.40;9.40;;;;;22.35;43.65;99910.94;5105288;28;9935;-73
2022/07/13 06:52:57;;;;;;;;;15.40;13.40;;;;;21.79;46.18;99921.16;5086793;28;8863;-75
2022/07/13 06:55:26;;;;;;;;;13.80;12.80;;;;;21.77;46.69;99916.88;5085783;28;9002;-76
2022/07/13 06:57:55;;;;;;;;;9.80;9.80;;;;;22.24;44.91;99916.66;5048390;28;8954;-71
2022/07/13 07:00:23;;;;;;;;;9.60;9.20;;;;;21.86;46.11;99912.97;5096047;28;8899;-74
2022/07/13 07:02:53;;;;;;;;;11.20;11.00;;;;;21.94;46.64;99910.84;5088035;28;8836;-75
2022/07/13 07:05:23;;;;;;;;;12.00;10.80;;;;;22.24;46.35;99910.50;5088239;28;8924;-71
2022/07/13 07:07:52;;;;;;;;;9.60;9.40;;;;;22.16;46.45;99926.78;5088063;28;8928;-75
2022/07/13 07:10:21;;;;;;;;;10.80;10.00;;;;;22.23;46.12;99922.03;5095679;28;8853;-69
2022/07/13 07:12:57;;;;;;;;;8.00;8.00;;;;;21.68;47.04;99931.41;5107803;28;8869;-75
2022/07/13 07:15:26;;;;;;;;;12.00;12.00;;;;;21.85;46.61;99916.53;5107358;28;9627;-76
2022/07/13 07:17:56;;;;;;;;;8.00;8.00;;;;;22.11;45.79;99918.97;5103930;28;8869;-72
2022/07/13 07:20:25;;;;;;;;;10.60;9.00;;;;;22.29;45.63;99916.53;5092326;28;9663;-74
2022/07/13 07:22:53;;;;;;;;;10.80;10.80;;;;;22.57;44.84;99922.34;5105513;28;8880;-74
2022/07/13 07:25:22;;;;;;;;;9.20;8.60;;;;;22.16;45.83;99922.31;5087064;28;9725;-73
2022/07/13 07:27:51;;;;;;;;;9.20;9.20;;;;;21.98;46.51;99918.66;5103618;28;9187;-73
2022/07/13 07:30:20;;;;;;;;;8.20;8.20;;;;;22.35;44.65;99911.78;5055088;28;8898;-72
2022/07/13 07:32:48;;;;;;;;;8.80;8.80;;;;;22.47;43.48;99921.00;5107424;28;8887;-72
2022/07/13 07:35:19;;;;;;;;;11.60;11.00;;;;;22.35;43.33;99919.75;5107430;28;8841;-73
2022/07/13 07:37:47;;;;;;;;;8.40;8.40;;;;;22.11;43.96;99918.97;5107128;28;9603;-73
2022/07/13 07:40:15;;;;;;;;;8.20;8.20;;;;;22.55;42.66;99910.94;5105528;28;8971;-73
2022/07/13 07:42:44;;;;;;;;;6.60;6.60;;;;;22.63;42.89;99910.59;5070005;28;8845;-72
2022/07/13 07:45:13;;;;;;;;;9.40;9.40;;;;;22.26;43.86;99922.81;5069533;28;8958;-73
2022/07/13 07:47:42;;;;;;;;;3.80;3.80;;;;;22.10;44.13;99914.59;5086914;28;8857;-75
2022/07/13 07:50:11;;;;;;;;;7.60;6.60;;;;;22.27;43.63;99928.97;5088573;28;8853;-75
2022/07/13 07:52:41;;;;;;;;;7.80;7.80;;;;;22.51;43.36;99917.31;5107818;28;8864;-73
2022/07/13 07:55:26;;;;;;;;;9.20;9.20;;;;;22.86;42.59;99916.69;5106222;28;8876;-73
2022/07/13 07:57:54;;;;;;;;;7.60;7.60;;;;;22.69;43.05;99912.13;5104703;28;8841;-74
2022/07/13 08:00:23;;;;;;;;;9.20;9.20;;;;;22.76;43.22;99919.75;5106125;28;8853;-75
2022/07/13 08:02:51;;;;;;;;;13.60;12.60;;;;;22.75;43.43;99914.50;5087865;28;8849;-76
2022/07/13 08:05:21;;;;;;;;;12.20;11.80;;;;;22.86;42.60;99914.88;5088613;28;8962;-73
2022/07/13 08:07:51;;;;;;;;;8.40;8.20;;;;;22.83;42.54;99911.47;5105732;28;8856;-73
2022/07/13 08:10:19;;;;;;;;;6.60;6.60;;;;;22.87;41.37;99913.94;5122600;28;8841;-74
2022/07/13 08:12:57;;;;;;;;;7.80;7.40;;;;;22.78;40.85;99915.22;5104721;28;8848;-75
2022/07/13 08:15:26;;;;;;;;;8.00;7.00;;;;;22.75;41.67;99918.00;5106830;28;8924;-76
2022/07/13 08:17:56;;;;;;;;;7.00;6.60;;;;;22.51;41.65;99917.31;5105296;28;8849;-76
2022/07/13 08:20:25;;;;;;;;;8.60;7.00;;;;;22.56;41.22;99911.78;5106861;28;8853;-72
2022/07/13 08:22:55;;;;;;;;;8.40;7.80;;;;;22.72;41.40;99911.94;5105893;28;8861;-73
2022/07/13 08:25:24;;;;;;;;;6.40;6.40;;;;;22.50;42.36;99920.03;5100511;28;8989;-74
2022/07/13 08:27:53;;;;;;;;;10.60;8.80;;;;;22.75;41.99;99907.38;5086909;28;8858;-73
2022/07/13 08:30:21;;;;;;;;;9.00;8.20;;;;;23.00;40.77;99913.38;5104450;28;8887;-74
2022/07/13 08:32:50;;;;;;;;;8.00;8.00;;;;;23.30;40.62;99906.66;5093143;28;8936;-75
2022/07/13 08:40:54;;;;;;;;;8.00;8.00;;;;;23.32;39.17;99907.44;5109956;28;8865;-74
2022/07/13 08:43:26;;;;;;;;;9.00;9.00;;;;;23.48;39.24;99896.94;5055795;28;8866;-75
2022/07/13 08:45:55;;;;;;;;;6.80;6.80;;;;;23.71;38.72;99892.28;5090523;28;8836;-75
2022/07/13 08:48:29;;;;;;;;;7.00;7.00;;;;;23.94;38.33;99892.03;5071566;28;8967;-75
2022/07/13 08:50:58;;;;;;;;;6.40;6.00;;;;;24.35;37.83;99898.84;5091124;28;8932;-73
2022/07/13 08:53:28;;;;;;;;;6.60;6.00;;;;;23.92;37.14;99901.88;5100267;28;8859;-72
2022/07/13 08:55:57;;;;;;;;;9.00;8.40;;;;;23.68;37.51;99897.75;5085665;28;8833;-75
2022/07/13 08:58:26;;;;;;;;;7.60;7.00;;;;;23.78;38.22;99888.38;5104244;28;8879;-75
2022/07/13 09:00:54;;;;;;;;;6.40;6.20;;;;;23.80;38.34;99898.97;5105646;28;8878;-73
2022/07/13 09:03:23;;;;;;;;;5.60;5.20;;;;;23.56;38.47;99893.91;5089360;28;9438;-73
2022/07/13 09:05:52;;;;;;;;;8.40;7.40;;;;;23.85;38.26;99889.81;5105596;28;8991;-74
2022/07/13 09:08:21;;;;;;;;;6.60;6.00;;;;;24.06;37.77;99887.00;5096651;28;8833;-75
2022/07/13 09:10:56;;;;;;;;;10.00;10.00;;;;;24.03;38.53;99885.38;5075725;28;8844;-74
2022/07/13 09:13:38;;;;;;;;;9.40;8.80;;;;;24.44;37.59;99877.06;5101678;28;8874;-72
2022/07/13 09:16:19;;;;;;;;;5.00;5.00;;;;;24.10;35.63;99881.47;5110712;27;8847;-74
2022/07/13 09:18:49;;;;;;;;;5.40;4.60;;;;;24.35;35.21;99880.19;5089180;28;8859;-75
2022/07/13 09:21:19;;;;;;;;;6.20;6.20;;;;;24.60;36.56;99873.59;5088961;28;8839;-75
2022/07/13 09:23:49;;;;;;;;;8.20;8.20;;;;;25.03;36.00;99876.59;5107316;28;8857;-74
2022/07/13 09:26:21;;;;;;;;;9.60;9.00;;;;;25.24;35.29;99877.25;5072807;28;8848;-74
2022/07/13 09:28:51;;;;;;;;;7.00;7.00;;;;;24.96;34.15;99880.56;5099098;28;8860;-75
2022/07/13 09:31:20;;;;;;;;;7.80;5.80;;;;;24.46;35.19;99882.28;5067064;28;8851;-75
2022/07/13 09:33:49;;;;;;;;;7.80;7.80;;;;;24.45;35.80;99873.44;5090513;28;8853;-71
2022/07/13 09:36:20;;;;;;;;;9.00;9.00;;;;;24.76;35.14;99876.28;5102040;28;8875;-70
2022/07/13 09:38:52;;;;;;;;;6.60;6.00;;;;;24.67;34.50;99870.53;5094011;28;8844;-74
2022/07/13 09:41:24;;;;;;;;;5.40;5.40;;;;;25.06;33.37;99863.06;5089340;28;8886;-72
2022/07/13 09:46:54;;;;;;;;;4.60;4.00;;;;;24.62;32.33;99866.38;5086721;28;8840;-75
2022/07/13 09:49:35;;;;;;;;;4.00;4.00;;;;;24.52;32.08;99882.00;5088583;28;8860;-74
2022/07/13 09:52:06;;;;;;;;;3.60;3.60;;;;;24.30;32.09;99874.22;5088856;28;8872;-75
2022/07/13 09:54:36;;;;;;;;;4.00;3.20;;;;;24.56;31.64;99866.72;5106702;28;8857;-74
2022/07/13 09:57:09;;;;;;;;;4.60;4.60;;;;;24.52;31.50;99871.34;5104419;28;8984;-75
2022/07/13 09:59:38;;;;;;;;;4.60;4.00;;;;;24.35;30.92;99858.88;5098555;28;8865;-74
2022/07/13 10:02:08;;;;;;;;;3.40;3.00;;;;;24.55;30.83;99856.97;5107142;28;8861;-77
2022/07/13 10:04:37;;;;;;;;;4.00;3.00;;;;;24.72;30.97;99854.25;5103830;28;8848;-76
2022/07/13 10:07:21;;;;;;;;;4.40;4.40;;;;;24.92;31.12;99857.66;5088933;28;8848;-74
2022/07/13 10:09:51;;;;;;;;;3.00;3.00;;;;;24.85;30.99;99859.78;5088402;28;8958;-73
2022/07/13 10:12:21;;;;;;;;;2.60;2.60;;;;;24.86;29.91;99856.19;5053286;28;9051;-78
2022/07/13 10:14:53;;;;;;;;;2.80;2.80;;;;;25.15;30.35;99851.03;5087668;28;8862;-73
2022/07/13 10:17:23;;;;;;;;;4.20;3.60;;;;;25.36;29.06;99857.84;5088895;28;8898;-76
2022/07/13 10:20:00;;;;;;;;;3.80;3.80;;;;;25.25;29.15;99861.13;5091158;28;8848;-71
2022/07/13 10:22:33;;;;;;;;;2.60;2.60;;;;;25.25;29.27;99852.25;5080824;28;8897;-72
2022/07/13 10:25:02;;;;;;;;;4.60;4.60;;;;;25.35;29.67;99856.16;5101674;28;8859;-74
2022/07/13 10:27:33;;;;;;;;;3.60;3.60;;;;;25.62;28.73;99859.03;5088446;28;8863;-71
2022/07/13 10:30:08;;;;;;;;;5.00;5.00;;;;;25.25;28.56;99858.47;5068667;28;8961;-71
2022/07/13 10:32:39;;;;;;;;;2.60;2.60;;;;;25.04;28.60;99864.97;5099449;28;9673;-74
2022/07/13 10:35:09;;;;;;;;;2.60;2.60;;;;;25.00;28.12;99855.41;5088186;28;9586;-73
2022/07/13 10:38:16;;;;;;;;;3.20;3.20;;;;;25.41;28.44;99847.78;5088169;28;9686;-73
2022/07/13 10:40:45;;;;;;;;;3.00;3.00;;;;;25.81;27.96;99848.13;5102708;28;9649;-72
2022/07/13 10:43:17;;;;;;;;;4.20;3.00;;;;;25.98;27.39;99849.84;5090459;28;8887;-73
2022/07/13 10:45:51;;;;;;;;;3.20;3.20;;;;;25.49;26.72;99847.34;5045068;28;8861;-74
2022/07/13 10:48:43;;;;;;;;;3.40;3.00;;;;;25.53;27.77;99838.19;5102391;28;8859;-77
2022/07/13 10:51:20;;;;;;;;;3.40;3.40;;;;;25.52;27.47;99835.59;5086960;28;8983;-74
2022/07/13 10:54:10;;;;;;;;;3.40;3.40;;;;;25.49;28.07;99826.81;5089665;28;8852;-74
2022/07/13 10:57:14;;;;;;;;;2.20;2.20;;;;;25.91;27.71;99826.22;5088053;28;8894;-73
2022/07/13 10:59:51;;;;;;;;;5.00;3.60;;;;;26.02;27.89;99834.47;5097518;28;9472;-73
2022/07/13 11:02:42;;;;;;;;;2.00;2.00;;;;;25.89;27.46;99820.94;5087549;28;8967;-74
2022/07/13 11:05:11;;;;;;;;;4.20;3.80;;;;;26.38;27.08;99815.31;5086767;28;8958;-76
2022/07/13 11:07:41;;;;;;;;;2.40;2.40;;;;;26.78;27.10;99814.69;5075650;28;9681;-73
2022/07/13 11:10:18;;;;;;;;;3.00;3.00;;;;;26.90;24.77;99811.22;5081983;28;9045;-74
2022/07/13 11:13:01;;;;;;;;;2.00;2.00;;;;;26.87;24.57;99805.22;5085188;28;8826;-75
2022/07/13 11:15:45;;;;;;;;;3.00;3.00;;;;;26.88;24.61;99809.59;5031794;28;9003;-76
2022/07/13 11:18:32;;;;;;;;;2.80;2.80;;;;;26.57;25.53;99812.38;5104738;28;8895;-75
2022/07/13 11:21:02;;;;;;;;;6.00;3.00;;;;;26.60;25.12;99801.53;5101099;28;8903;-75
2022/07/13 11:26:56;;;;;;;;;3.00;2.20;;;;;26.70;23.99;99796.44;5084734;28;8854;-76
2022/07/13 11:29:36;;;;;;;;;3.40;3.40;;;;;26.99;24.35;99797.25;5100911;28;8836;-73
2022/07/13 11:32:07;;;;;;;;;2.80;2.00;;;;;26.69;24.64;99796.53;5098117;28;8877;-74
2022/07/13 11:34:36;;;;;;;;;3.40;3.40;;;;;27.06;24.02;99784.31;5092940;28;8897;-74
2022/07/13 11:37:05;;;;;;;;;9.80;7.40;;;;;27.47;23.85;99785.25;5087325;28;8847;-77
2022/07/13 11:39:35;;;;;;;;;4.00;4.00;;;;;27.80;23.42;99790.16;5071036;28;8956;-77
2022/07/13 11:42:07;;;;;;;;;6.60;5.40;;;;;27.70;24.05;99791.75;5105732;28;9648;-76
2022/07/13 11:44:37;;;;;;;;;4.00;4.00;;;;;27.80;23.17;99801.72;5104432;28;8857;-74
2022/07/13 11:47:09;;;;;;;;;2.00;2.00;;;;;27.69;23.14;99793.56;5099195;28;8972;-76
2022/07/13 11:49:43;;;;;;;;;2.60;2.00;;;;;27.33;23.52;99792.38;5087398;28;8966;-75
2022/07/13 11:52:19;;;;;;;;;3.00;3.00;;;;;27.72;23.90;99777.28;5095432;28;8887;-74
2022/07/13 11:55:01;;;;;;;;;4.40;4.40;;;;;27.67;24.33;99784.75;5054968;28;8853;-77
2022/07/13 11:57:32;;;;;;;;;6.00;6.00;;;;;27.78;25.00;99781.34;5095374;28;8998;-74
2022/07/13 12:00:02;;;;;;;;;4.00;4.00;;;;;27.59;24.72;99796.00;5087071;28;9625;-72
2022/07/13 12:02:40;;;;;;;;;1.20;1.20;;;;;27.42;23.96;99796.28;5085507;28;8988;-75
2022/07/13 12:05:10;;;;;;;;;4.60;4.60;;;;;27.80;22.40;99790.16;5102853;28;8952;-77
2022/07/13 12:08:01;;;;;;;;;3.60;2.00;;;;;27.54;23.16;99779.41;5091298;28;8940;-74